Time;durP1;ratioP1;P1;durP2;ratioP2;P2;SDS_P1;SDS_P2;PMS_P1;PMS_P2;Temp;Humidity;BMP_temperature;BMP_pressure;BME280_temperature;BME280_humidity;BME280_pressure;Samples;Min_cycle;Max_cycle;Signal;HPM_P1;HPM_P2
2023/04/18 00:01:48;;;;;;;2.63;1.30;;;;;;;16.89;56.75;96811.88;10330474;28;20108;-32
2023/04/18 00:06:50;;;;;;;2.97;1.00;;;;;;;16.87;59.05;96805.97;10330206;28;20050;-32
2023/04/18 00:11:51;;;;;;;2.58;1.00;;;;;;;16.95;59.28;96814.47;10329984;28;20077;-31
2023/04/18 00:16:52;;;;;;;4.82;1.13;;;;;;;16.95;59.51;96806.00;10329260;28;20547;-33
2023/04/18 00:21:53;;;;;;;1.95;1.10;;;;;;;16.95;59.02;96800.97;10329756;28;20045;-32
2023/04/18 00:26:53;;;;;;;1.90;1.07;;;;;;;16.90;58.18;96795.88;10329625;28;20057;-33
2023/04/18 00:31:53;;;;;;;1.57;0.90;;;;;;;16.89;56.95;96790.81;10329426;28;20504;-31
2023/04/18 00:36:55;;;;;;;2.63;1.10;;;;;;;16.90;56.60;96787.47;10336302;28;20053;-33
2023/04/18 00:41:55;;;;;;;1.43;1.30;;;;;;;16.87;57.12;96777.31;10331310;28;20043;-32
2023/04/18 00:46:55;;;;;;;1.43;0.90;;;;;;;16.88;54.26;96781.50;10337050;28;20036;-33
2023/04/18 00:51:56;;;;;;;1.73;1.13;;;;;;;16.88;55.96;96779.84;10328744;28;20042;-31
2023/04/18 00:56:56;;;;;;;3.10;0.95;;;;;;;16.90;54.37;96779.88;10328956;28;20032;-33
2023/04/18 01:02:00;;;;;;;6.35;1.10;;;;;;;16.89;54.22;96773.13;10326627;28;20034;-32
2023/04/18 01:07:02;;;;;;;3.08;1.17;;;;;;;16.90;58.61;96764.69;10324247;28;20042;-33
2023/04/18 01:12:03;;;;;;;2.15;1.20;;;;;;;16.91;59.43;96761.34;10326861;28;20458;-31
2023/04/18 01:17:03;;;;;;;2.70;1.23;;;;;;;16.93;59.18;96762.19;10326526;28;20038;-32
2023/04/18 01:22:05;;;;;;;4.30;1.10;;;;;;;16.92;58.19;96765.53;10327439;28;20556;-33
2023/04/18 01:27:10;;;;;;;3.25;1.10;;;;;;;16.87;58.87;96755.41;10326927;28;20031;-32
2023/04/18 01:32:11;;;;;;;3.47;1.60;;;;;;;16.87;58.70;96755.41;10342428;28;20030;-32
2023/04/18 01:37:11;;;;;;;1.30;1.20;;;;;;;16.85;58.24;96743.56;10351618;28;20084;-32
2023/04/18 01:42:13;;;;;;;1.38;0.93;;;;;;;16.87;56.93;96747.81;10349210;28;20289;-32
2023/04/18 01:47:16;;;;;;;2.27;1.03;;;;;;;16.87;57.41;96746.97;10361789;28;20085;-33
2023/04/18 01:52:16;;;;;;;1.90;0.95;;;;;;;16.87;57.65;96746.97;10351759;28;20037;-32
2023/04/18 01:57:17;;;;;;;1.37;1.10;;;;;;;16.86;57.17;96745.28;10339554;28;20034;-33
2023/04/18 02:02:17;;;;;;;1.60;1.20;;;;;;;16.86;56.04;96727.56;10345897;28;20026;-32
2023/04/18 02:07:17;;;;;;;6.17;1.10;;;;;;;16.85;57.79;96744.44;10350893;28;20038;-32
2023/04/18 02:12:19;;;;;;;2.33;0.98;;;;;;;16.89;58.68;96745.31;10364719;28;20523;-31
2023/04/18 02:17:20;;;;;;;2.50;1.03;;;;;;;16.90;59.34;96734.34;10356674;28;20022;-32
2023/04/18 02:22:20;;;;;;;3.03;1.10;;;;;;;16.89;58.63;96732.66;10365644;28;20425;-32
2023/04/18 02:27:21;;;;;;;2.80;1.17;;;;;;;16.90;58.38;96736.88;10366680;28;20032;-32
2023/04/18 02:32:21;;;;;;;2.40;1.20;;;;;;;16.88;58.55;96738.53;10361066;28;20296;-31
2023/04/18 02:37:21;;;;;;;3.97;2.07;;;;;;;16.87;58.38;96739.38;10334128;28;20033;-31
2023/04/18 02:42:22;;;;;;;5.07;1.20;;;;;;;16.87;58.05;96731.78;10349507;28;20033;-32
2023/04/18 02:47:22;;;;;;;1.42;0.80;;;;;;;16.83;58.48;96740.19;10363374;28;20030;-32
2023/04/18 02:52:24;;;;;;;2.10;1.47;;;;;;;16.82;58.41;96741.03;10351605;28;20026;-32
2023/04/18 02:57:26;;;;;;;1.52;0.90;;;;;;;16.83;58.27;96737.66;10357074;28;20030;-33
2023/04/18 03:02:44;;;;;;;1.40;1.05;;;;;;;16.83;57.99;96742.72;10370009;28;20045;-31
2023/04/18 03:08:09;;;;;;;1.38;0.95;;;;;;;16.83;58.50;96740.19;10357888;28;20298;-31
2023/04/18 03:13:11;;;;;;;4.43;1.27;;;;;;;16.85;58.80;96738.53;10357705;28;20033;-33
2023/04/18 03:18:13;;;;;;;1.50;1.05;;;;;;;16.87;58.69;96726.72;10362396;28;20117;-33
2023/04/18 03:23:15;;;;;;;2.15;0.80;;;;;;;16.88;58.52;96730.94;10367364;28;20034;-33
2023/04/18 03:28:15;;;;;;;2.20;0.93;;;;;;;16.88;58.36;96725.88;10363112;28;20030;-32
2023/04/18 03:33:16;;;;;;;1.50;1.27;;;;;;;16.86;58.46;96722.50;10351360;28;20057;-32
2023/04/18 03:38:17;;;;;;;1.80;1.02;;;;;;;16.85;58.36;96721.69;10349250;28;20300;-32
2023/04/18 03:43:19;;;;;;;1.55;0.98;;;;;;;16.84;58.31;96731.78;10354298;28;20385;-33
2023/04/18 03:48:20;;;;;;;1.65;0.85;;;;;;;16.85;57.91;96723.34;10377092;28;20034;-33
2023/04/18 03:53:21;;;;;;;2.20;1.25;;;;;;;16.83;57.70;96712.38;10354111;28;20083;-33
2023/04/18 03:58:22;;;;;;;4.25;2.00;;;;;;;16.87;57.80;96716.63;10349987;28;20030;-32
2023/04/18 04:03:23;;;;;;;1.27;0.90;;;;;;;16.84;57.79;96717.44;10368345;28;20156;-32
2023/04/18 04:08:24;;;;;;;2.42;1.35;;;;;;;16.86;57.84;96714.94;10366775;28;20203;-31
2023/04/18 04:13:25;;;;;;;4.03;1.08;;;;;;;16.86;57.97;96723.38;10365926;28;20120;-32
2023/04/18 04:18:29;;;;;;;2.03;1.00;;;;;;;16.87;58.45;96726.72;10359067;28;20040;-32
2023/04/18 04:23:32;;;;;;;5.00;1.27;;;;;;;16.89;58.21;96720.03;10357275;28;20119;-32
2023/04/18 04:28:34;;;;;;;4.38;0.80;;;;;;;16.91;57.78;96718.34;10353738;28;20041;-32
2023/04/18 04:33:37;;;;;;;2.25;1.00;;;;;;;16.92;57.64;96725.09;10357202;28;20033;-33
2023/04/18 04:38:43;;;;;;;2.45;1.10;;;;;;;16.92;57.86;96735.19;10358166;28;20045;-33
2023/04/18 04:43:45;;;;;;;1.58;1.00;;;;;;;16.92;57.31;96735.19;10349182;28;20026;-33
2023/04/18 04:48:48;;;;;;;3.13;1.02;;;;;;;16.94;55.34;96739.44;10367151;28;20776;-31
2023/04/18 04:53:49;;;;;;;5.28;1.45;;;;;;;16.93;57.37;96736.88;10355654;28;20040;-32
2023/04/18 04:58:49;;;;;;;3.83;1.58;;;;;;;16.92;57.57;96741.09;10359994;28;20045;-33
2023/04/18 05:03:57;;;;;;;5.63;1.90;;;;;;;16.77;56.16;96735.09;10358884;28;20026;-33
2023/04/18 05:08:59;;;;;;;5.97;2.22;;;;;;;16.78;55.07;96739.31;10348876;28;20455;-34
2023/04/18 05:14:00;;;;;;;5.75;1.85;;;;;;;16.80;56.05;96740.16;10357436;28;20038;-33
2023/04/18 05:19:00;;;;;;;11.03;2.43;;;;;;;16.81;57.26;96741.88;10352493;28;20038;-32
2023/04/18 05:24:00;;;;;;;5.73;1.97;;;;;;;16.86;57.58;96745.28;10351602;28;20034;-32
2023/04/18 05:29:01;;;;;;;13.10;5.63;;;;;;;16.56;53.26;96752.66;10348594;28;20037;-32
2023/04/18 05:34:01;;;;;;;6.57;4.53;;;;;;;16.56;54.09;96749.25;10365880;28;20034;-33
2023/04/18 05:39:02;;;;;;;6.00;3.87;;;;;;;16.69;54.69;96751.88;10358461;28;20045;-32
2023/04/18 05:44:05;;;;;;;6.28;3.08;;;;;;;16.73;55.04;96752.75;10356762;28;20080;-32
2023/04/18 05:49:05;;;;;;;11.27;2.95;;;;;;;16.74;55.53;96745.19;10359748;28;20041;-32
2023/04/18 05:54:05;;;;;;;7.77;2.60;;;;;;;16.77;55.54;96759.53;10351474;28;20030;-32
2023/04/18 05:59:06;;;;;;;4.57;2.13;;;;;;;16.75;55.82;96757.00;10349706;28;20165;-33
2023/04/18 06:04:07;;;;;;;4.37;2.33;;;;;;;16.76;55.79;96756.16;10359294;28;20165;-32
2023/04/18 06:09:07;;;;;;;5.65;2.63;;;;;;;16.77;54.61;96757.84;10351360;28;20069;-32
2023/04/18 06:14:07;;;;;;;3.43;2.33;;;;;;;16.80;55.92;96766.31;10361034;28;20131;-33
2023/04/18 06:19:08;;;;;;;2.50;2.27;;;;;;;16.80;55.53;96765.44;10367070;28;20377;-33
2023/04/18 06:24:09;;;;;;;4.47;2.07;;;;;;;16.79;56.75;96773.88;10359117;28;20046;-32
2023/04/18 06:29:10;;;;;;;3.67;1.92;;;;;;;16.79;56.68;96773.88;10362220;28;20618;-32
2023/04/18 06:34:11;;;;;;;4.18;1.92;;;;;;;16.80;56.74;96775.56;10366631;28;20484;-32
2023/04/18 06:39:11;;;;;;;3.65;2.13;;;;;;;16.82;56.53;96778.97;10353955;28;20030;-33
2023/04/18 06:44:11;;;;;;;2.03;1.80;;;;;;;16.82;55.91;96784.84;10356012;28;20041;-32
2023/04/18 06:49:12;;;;;;;3.77;1.83;;;;;;;16.81;56.35;96787.38;10365568;28;20041;-32
2023/04/18 06:54:13;;;;;;;2.53;1.50;;;;;;;16.80;56.36;96793.25;10353585;28;20041;-32
2023/04/18 06:59:13;;;;;;;1.45;1.35;;;;;;;16.78;56.25;96787.34;10368805;28;20037;-33
2023/04/18 07:04:14;;;;;;;3.50;1.60;;;;;;;16.79;56.35;96789.03;10365392;28;20420;-32
2023/04/18 07:09:14;;;;;;;3.95;1.90;;;;;;;16.78;56.14;96783.16;10359935;28;20076;-33
2023/04/18 07:14:15;;;;;;;4.83;2.17;;;;;;;16.77;56.25;96790.72;10369973;28;20113;-32
2023/04/18 07:19:15;;;;;;;3.28;1.52;;;;;;;16.77;56.29;96790.72;10372317;28;20041;-33
2023/04/18 07:24:16;;;;;;;3.35;1.70;;;;;;;16.77;56.72;96795.78;10368916;28;20096;-33
2023/04/18 07:29:18;;;;;;;3.90;1.60;;;;;;;16.77;56.94;96791.56;10368441;28;20089;-32
2023/04/18 07:34:18;;;;;;;2.00;1.33;;;;;;;16.78;57.07;96798.31;10356230;28;20060;-32
2023/04/18 07:39:19;;;;;;;3.63;1.83;;;;;;;16.78;56.97;96792.41;10368256;28;20507;-32
2023/04/18 07:44:20;;;;;;;2.33;1.75;;;;;;;16.79;56.23;96799.16;10360019;28;20034;-31
2023/04/18 07:49:21;;;;;;;1.95;1.10;;;;;;;16.78;56.36;96795.78;10363169;28;20030;-31
2023/04/18 07:54:21;;;;;;;4.10;1.50;;;;;;;16.77;56.25;96795.78;10363011;28;20042;-33
2023/04/18 07:59:22;;;;;;;1.85;1.13;;;;;;;16.77;56.56;96798.31;10354881;28;20048;-32
2023/04/18 08:04:22;;;;;;;3.50;1.27;;;;;;;16.76;57.03;96809.25;10371120;28;20452;-32
2023/04/18 08:09:23;;;;;;;2.22;1.38;;;;;;;16.76;56.49;96799.13;10352644;28;20300;-32
2023/04/18 08:14:23;;;;;;;1.52;1.30;;;;;;;16.73;57.09;96810.91;10354572;28;20092;-32
2023/04/18 08:19:23;;;;;;;2.23;1.53;;;;;;;16.72;56.78;96802.50;10353833;28;20061;-32
2023/04/18 08:24:24;;;;;;;1.53;1.10;;;;;;;16.72;56.72;96802.50;10352678;28;20038;-33
2023/04/18 08:29:25;;;;;;;2.63;1.50;;;;;;;16.72;57.02;96807.53;10350084;28;20045;-32
2023/04/18 08:34:27;;;;;;;2.08;1.15;;;;;;;16.75;57.13;96810.09;10353378;28;20410;-32
2023/04/18 08:39:28;;;;;;;2.03;1.38;;;;;;;16.76;57.29;96809.25;10367719;28;20088;-31
2023/04/18 08:44:29;;;;;;;2.00;1.30;;;;;;;16.77;57.08;96806.75;10365584;28;20091;-33
2023/04/18 08:49:30;;;;;;;1.67;1.58;;;;;;;16.75;57.19;96805.03;10366101;28;20504;-33
2023/04/18 08:54:31;;;;;;;1.40;1.30;;;;;;;16.74;57.04;96810.94;10359741;28;20231;-33
2023/04/18 08:59:34;;;;;;;1.30;1.10;;;;;;;16.72;57.06;96819.31;10356943;28;20500;-31
2023/04/18 09:04:42;;;;;;;1.23;1.13;;;;;;;16.73;56.96;96815.13;10360797;28;20045;-32
2023/04/18 09:09:53;;;;;;;1.35;1.20;;;;;;;16.73;56.90;96818.47;10364119;28;20465;-32
2023/04/18 09:14:56;;;;;;;1.17;1.08;;;;;;;16.73;57.28;96823.53;10356432;28;20037;-32
2023/04/18 09:19:58;;;;;;;3.50;1.20;;;;;;;16.76;57.10;96824.41;10337172;28;20084;-32
2023/04/18 09:24:58;;;;;;;2.03;1.50;;;;;;;16.74;56.57;96816.81;10351803;28;20489;-32
2023/04/18 09:29:59;;;;;;;1.30;1.00;;;;;;;16.74;56.71;96816.81;10362448;28;20046;-32
2023/04/18 09:35:03;;;;;;;1.33;1.23;;;;;;;16.74;56.23;96823.56;10359751;28;20439;-32
2023/04/18 09:40:16;;;;;;;1.63;1.52;;;;;;;16.74;57.42;96826.09;10343322;28;20136;-32
2023/04/18 09:45:17;;;;;;;1.75;1.42;;;;;;;16.76;57.52;96821.88;10348208;28;20109;-33
2023/04/18 09:50:19;;;;;;;1.10;1.00;;;;;;;16.77;57.40;96826.09;10374560;28;20030;-32
2023/04/18 09:55:20;;;;;;;1.45;1.27;;;;;;;16.77;56.95;96825.28;10360409;28;20041;-32
2023/04/18 10:00:25;;;;;;;1.25;1.15;;;;;;;16.74;56.81;96826.94;10371510;28;20105;-32
2023/04/18 10:05:30;;;;;;;2.40;0.98;;;;;;;16.73;57.17;96822.72;10374193;28;20520;-32
2023/04/18 10:10:31;;;;;;;1.77;1.10;;;;;;;16.72;57.24;96822.72;10354076;28;20076;-32
2023/04/18 10:15:32;;;;;;;1.17;1.05;;;;;;;16.74;57.27;96821.03;10367013;28;20042;-32
2023/04/18 10:20:33;;;;;;;1.40;1.02;;;;;;;16.77;56.20;96821.06;10372273;28;20038;-32
2023/04/18 10:25:33;;;;;;;1.15;1.08;;;;;;;16.78;56.72;96827.81;10359452;28;20092;-31
2023/04/18 10:30:38;;;;;;;1.33;1.10;;;;;;;16.77;56.93;96820.22;10361007;28;20044;-31
2023/04/18 10:36:04;;;;;;;0.98;0.82;;;;;;;16.78;56.22;96817.69;10370984;28;20489;-33
2023/04/18 10:41:13;;;;;;;1.75;0.90;;;;;;;16.74;56.35;96815.97;10357048;28;20030;-33
2023/04/18 10:46:14;;;;;;;1.58;1.10;;;;;;;16.75;57.33;96827.78;10362097;28;20535;-32
2023/04/18 10:51:18;;;;;;;1.43;1.33;;;;;;;16.77;57.20;96818.53;10365603;28;20034;-31
2023/04/18 10:56:19;;;;;;;1.00;0.90;;;;;;;16.79;57.06;96819.38;10352354;28;20583;-32
2023/04/18 11:01:26;;;;;;;1.20;1.10;;;;;;;16.79;56.39;96810.13;10360691;28;20042;-32
2023/04/18 11:06:27;;;;;;;0.98;0.93;;;;;;;16.82;56.26;96811.84;10364839;28;20034;-32
2023/04/18 11:11:28;;;;;;;1.45;1.20;;;;;;;16.84;55.39;96812.69;10365278;28;20034;-32
2023/04/18 11:16:30;;;;;;;1.50;1.40;;;;;;;16.82;55.58;96811.84;10360123;28;20026;-32
2023/04/18 11:21:30;;;;;;;1.30;0.90;;;;;;;16.80;56.51;96811.81;10369595;28;20383;-33
2023/04/18 11:26:31;;;;;;;1.38;1.10;;;;;;;16.82;56.81;96804.25;10362039;28;20037;-33
2023/04/18 11:31:31;;;;;;;1.75;1.65;;;;;;;16.83;57.13;96811.00;10367030;28;20030;-33
2023/04/18 11:36:34;;;;;;;1.40;1.10;;;;;;;16.82;57.37;96800.03;10371898;28;20030;-32
2023/04/18 11:41:34;;;;;;;1.48;1.17;;;;;;;16.82;58.01;96804.25;10363444;28;20328;-32
2023/04/18 11:46:38;;;;;;;2.03;1.13;;;;;;;16.81;57.65;96797.50;10352460;28;20199;-32
2023/04/18 11:51:38;;;;;;;1.83;1.20;;;;;;;16.82;58.11;96796.66;10363819;28;20342;-32
2023/04/18 11:56:47;;;;;;;1.50;1.40;;;;;;;16.85;58.40;96796.69;10363838;28;20534;-33
2023/04/18 12:01:56;;;;;;;1.80;1.30;;;;;;;16.85;57.89;96792.47;10370200;28;20488;-32
2023/04/18 12:06:57;;;;;;;2.47;2.15;;;;;;;16.82;57.55;96794.97;10365256;28;20037;-32
2023/04/18 12:12:02;;;;;;;1.73;1.63;;;;;;;16.85;57.66;96786.56;10353737;28;20034;-32
2023/04/18 12:17:02;;;;;;;2.25;1.55;;;;;;;16.85;57.48;96799.22;10355456;28;20065;-31
2023/04/18 12:22:04;;;;;;;2.77;1.90;;;;;;;16.85;57.81;96800.06;10362550;28;20096;-33
2023/04/18 12:27:04;;;;;;;2.05;1.40;;;;;;;16.85;55.36;96799.22;10354541;28;20148;-32
2023/04/18 12:32:04;;;;;;;3.57;1.90;;;;;;;16.85;57.18;96789.09;10348476;28;20031;-32
2023/04/18 12:37:05;;;;;;;4.25;1.80;;;;;;;16.84;57.76;96794.97;10360079;28;20030;-31
2023/04/18 12:42:05;;;;;;;3.20;1.73;;;;;;;16.83;56.43;96798.34;10361830;28;20025;-32
2023/04/18 12:47:06;;;;;;;6.40;4.30;;;;;;;16.81;56.71;96807.63;10357837;28;20041;-32
2023/04/18 12:52:06;;;;;;;9.03;3.23;;;;;;;16.78;55.39;96797.47;10367483;28;20647;-32
2023/04/18 12:57:06;;;;;;;3.70;2.17;;;;;;;16.79;58.43;96789.03;10360510;28;20026;-33
2023/04/18 13:02:07;;;;;;;7.47;2.17;;;;;;;16.81;59.17;96807.63;10360873;28;20470;-33
2023/04/18 13:07:07;;;;;;;3.73;2.00;;;;;;;16.79;58.69;96789.91;10368568;28;20025;-32
2023/04/18 13:12:08;;;;;;;8.87;5.80;;;;;;;16.78;53.56;96795.78;10366150;28;20092;-32
2023/04/18 13:17:08;;;;;;;6.50;5.47;;;;;;;16.74;53.71;96795.75;10343784;28;20040;-32
2023/04/18 13:22:08;;;;;;;7.85;7.05;;;;;;;16.68;51.95;96798.22;10360387;28;20371;-32
2023/04/18 13:27:09;;;;;;;9.70;7.10;;;;;;;16.62;52.03;96800.69;10362149;28;20394;-32
2023/04/18 13:32:10;;;;;;;7.28;6.57;;;;;;;16.65;52.67;96795.69;10353402;28;20125;-33
2023/04/18 13:37:11;;;;;;;7.63;4.97;;;;;;;16.74;54.80;96786.47;10355140;28;20026;-32
2023/04/18 13:42:12;;;;;;;7.40;4.38;;;;;;;16.78;54.64;96784.81;10354019;28;20488;-33
2023/04/18 13:47:12;;;;;;;4.87;3.37;;;;;;;16.80;55.13;96790.72;10361262;28;20033;-31
2023/04/18 13:52:12;;;;;;;6.47;4.13;;;;;;;16.81;54.49;96788.22;10357827;28;20034;-32
2023/04/18 13:57:13;;;;;;;5.70;3.83;;;;;;;16.81;53.95;96787.38;10356501;28;20022;-32
2023/04/18 14:02:13;;;;;;;7.20;3.42;;;;;;;16.81;53.97;96783.16;10360259;28;20113;-32
2023/04/18 14:07:14;;;;;;;6.90;3.27;;;;;;;16.85;58.45;96786.56;10365411;28;20034;-33
2023/04/18 14:12:14;;;;;;;6.95;3.80;;;;;;;16.87;58.22;96783.22;10349682;28;20292;-32
2023/04/18 14:17:15;;;;;;;6.17;3.17;;;;;;;16.87;57.63;96784.88;10345133;28;20125;-32
2023/04/18 14:22:15;;;;;;;7.13;3.27;;;;;;;16.84;55.23;96774.75;10364484;28;20065;-32
2023/04/18 14:27:15;;;;;;;4.67;2.53;;;;;;;16.85;53.57;96776.44;10351709;28;20042;-32
2023/04/18 14:32:16;;;;;;;2.90;2.47;;;;;;;16.85;53.52;96774.78;10306600;28;1047221;-32
2023/04/18 14:37:16;;;;;;;7.43;2.70;;;;;;;16.87;53.20;96778.16;10378714;28;20517;-32
2023/04/18 14:42:17;;;;;;;4.97;2.67;;;;;;;16.90;53.39;96767.22;10366575;28;20299;-32
2023/04/18 14:47:17;;;;;;;4.97;2.35;;;;;;;16.93;52.96;96769.75;10357887;28;20045;-32
2023/04/18 14:52:17;;;;;;;5.37;2.50;;;;;;;16.94;52.94;96763.88;10366919;28;20040;-33
2023/04/18 14:57:18;;;;;;;2.47;2.20;;;;;;;16.95;53.02;96766.41;10359819;28;20125;-33
2023/04/18 15:02:20;;;;;;;16.10;5.00;;;;;;;16.88;54.21;96773.94;10355905;28;20466;-32
2023/04/18 15:07:20;;;;;;;11.32;3.38;;;;;;;16.92;52.77;96763.03;10373182;28;20034;-33
2023/04/18 15:12:21;;;;;;;7.00;3.27;;;;;;;17.01;56.76;96775.72;10356160;28;20029;-33
2023/04/18 15:17:21;;;;;;;5.00;2.70;;;;;;;17.11;57.78;96772.41;10348839;28;20289;-35
2023/04/18 15:22:21;;;;;;;14.63;4.85;;;;;;;17.07;55.83;96760.59;10370352;28;20037;-31
2023/04/18 15:27:22;;;;;;;6.87;2.60;;;;;;;17.01;53.98;96763.94;10364162;28;20045;-31
2023/04/18 15:32:23;;;;;;;8.23;3.07;;;;;;;16.97;53.57;96761.34;10363641;28;20100;-32
2023/04/18 15:37:23;;;;;;;5.97;2.35;;;;;;;16.94;53.58;96758.81;10371821;28;20026;-32
2023/04/18 15:42:24;;;;;;;4.27;2.00;;;;;;;16.91;52.97;96761.34;10356855;28;20040;-33
2023/04/18 15:47:24;;;;;;;9.13;3.03;;;;;;;16.88;53.17;96759.63;10362903;28;20083;-32
2023/04/18 15:52:24;;;;;;;8.40;2.63;;;;;;;16.90;53.25;96764.69;10361894;28;20435;-32
2023/04/18 15:57:25;;;;;;;4.80;2.33;;;;;;;16.91;53.01;96771.44;10362815;28;20756;-32
2023/04/18 16:02:26;;;;;;;7.70;2.63;;;;;;;16.91;52.77;96771.44;10356472;28;20500;-33
2023/04/18 16:07:26;;;;;;;5.22;2.17;;;;;;;16.93;52.55;96767.25;10369016;28;20048;-32
2023/04/18 16:12:26;;;;;;;5.90;2.23;;;;;;;16.95;54.05;96775.66;10359976;28;20087;-32
2023/04/18 16:17:27;;;;;;;12.40;3.67;;;;;;;16.96;55.01;96773.16;10350485;28;20037;-33
2023/04/18 16:22:27;;;;;;;4.83;2.60;;;;;;;17.12;57.55;96780.00;10359612;28;20468;-33
2023/04/18 16:27:27;;;;;;;5.30;3.10;;;;;;;17.16;58.26;96779.19;10361450;28;20121;-32
2023/04/18 16:32:28;;;;;;;8.63;2.53;;;;;;;17.09;55.52;96785.03;10362134;28;20037;-32
2023/04/18 16:37:31;;;;;;;7.27;2.57;;;;;;;17.03;53.22;96784.16;10356558;28;20114;-32
2023/04/18 16:42:32;;;;;;;4.47;2.20;;;;;;;16.97;53.25;96779.91;10356961;28;20030;-33
2023/04/18 16:47:32;;;;;;;5.20;2.20;;;;;;;16.96;52.97;96783.28;10358599;28;20054;-33
2023/04/18 16:52:33;;;;;;;5.13;1.93;;;;;;;16.93;52.76;96779.88;10375040;28;20041;-33
2023/04/18 16:57:33;;;;;;;3.37;2.07;;;;;;;16.95;52.72;96785.78;10366763;28;20033;-32
2023/04/18 17:02:33;;;;;;;2.37;1.97;;;;;;;16.94;52.45;96787.50;10361593;28;20034;-31
2023/04/18 17:07:34;;;;;;;4.73;2.00;;;;;;;16.94;52.94;96787.50;10367765;28;20044;-31
2023/04/18 17:12:34;;;;;;;3.50;1.87;;;;;;;16.92;52.59;96795.91;10354907;28;20124;-32
2023/04/18 17:17:34;;;;;;;2.83;2.00;;;;;;;16.97;53.57;96801.81;10347715;28;20463;-33
2023/04/18 17:22:35;;;;;;;5.87;2.73;;;;;;;16.98;54.91;96795.94;10360776;28;20129;-32
2023/04/18 17:27:38;;;;;;;8.37;2.10;;;;;;;17.07;57.86;96801.06;10359792;28;20030;-32
2023/04/18 17:32:44;;;;;;;5.65;2.80;;;;;;;17.12;59.42;96804.44;10349694;28;20116;-32
2023/04/18 17:37:48;;;;;;;5.13;2.47;;;;;;;17.13;56.57;96801.06;10365320;28;20113;-31
2023/04/18 17:42:48;;;;;;;7.30;2.25;;;;;;;17.10;56.07;96806.13;10361705;28;20049;-32
2023/04/18 17:47:49;;;;;;;4.87;2.17;;;;;;;17.10;55.70;96816.25;10359963;28;20038;-32
2023/04/18 17:52:49;;;;;;;7.00;2.78;;;;;;;17.09;56.10;96815.38;10365431;28;20068;-32
2023/04/18 17:57:50;;;;;;;5.63;2.40;;;;;;;17.06;55.94;96819.59;10362944;28;20037;-32
2023/04/18 18:02:51;;;;;;;4.37;2.17;;;;;;;17.04;55.96;96822.13;10345619;28;20030;-31
2023/04/18 18:07:52;;;;;;;7.22;2.45;;;;;;;16.96;55.81;96823.75;10352658;28;20033;-32
2023/04/18 18:12:52;;;;;;;2.83;2.10;;;;;;;17.03;56.23;96829.69;10360839;28;20034;-32
2023/04/18 18:17:53;;;;;;;5.23;2.37;;;;;;;17.00;55.62;96840.63;10358702;28;20034;-32
2023/04/18 18:22:54;;;;;;;2.97;1.90;;;;;;;17.00;55.12;96850.72;10356727;28;20495;-32
2023/04/18 18:27:54;;;;;;;6.38;2.33;;;;;;;17.00;55.17;96857.50;10360082;28;20567;-32
2023/04/18 18:32:55;;;;;;;7.63;2.90;;;;;;;17.00;58.92;96854.97;10359169;28;20046;-32
2023/04/18 18:37:55;;;;;;;3.75;2.40;;;;;;;17.09;59.23;96860.09;10364176;28;20296;-32
2023/04/18 18:42:56;;;;;;;6.47;2.60;;;;;;;17.10;59.82;96870.22;10344552;28;20493;-33
2023/04/18 18:47:56;;;;;;;4.10;2.40;;;;;;;17.04;56.64;96871.84;10362586;28;20096;-32
2023/04/18 18:52:56;;;;;;;7.57;3.07;;;;;;;17.03;55.39;96885.31;10367098;28;20029;-32
2023/04/18 18:57:57;;;;;;;1.93;1.70;;;;;;;16.98;55.10;96885.28;10360684;28;20132;-32
2023/04/18 19:02:57;;;;;;;4.82;2.03;;;;;;;16.98;54.44;96887.00;10341698;28;20096;-33
2023/04/18 19:07:57;;;;;;;5.87;2.43;;;;;;;16.96;54.80;96893.69;10351052;28;20038;-33
2023/04/18 19:12:59;;;;;;;4.80;2.40;;;;;;;17.00;54.53;96895.44;10345408;28;20033;-32
2023/04/18 19:18:00;;;;;;;2.45;1.85;;;;;;;17.02;54.32;96903.88;10361153;28;20376;-32
2023/04/18 19:23:00;;;;;;;4.97;2.55;;;;;;;17.03;55.84;96910.63;10360133;28;20037;-31
2023/04/18 19:28:00;;;;;;;3.93;2.10;;;;;;;17.02;55.06;96909.78;10352555;28;20026;-32
2023/04/18 19:33:01;;;;;;;6.27;2.37;;;;;;;17.04;55.25;96922.44;10339312;28;20117;-32
2023/04/18 19:38:01;;;;;;;4.63;2.40;;;;;;;17.04;59.21;96913.16;10365013;28;20117;-32
2023/04/18 19:43:02;;;;;;;6.28;2.47;;;;;;;17.04;59.83;96923.28;10361185;28;20033;-32
2023/04/18 19:48:02;;;;;;;4.57;2.60;;;;;;;17.06;59.82;96925.84;10358941;28;20049;-32
2023/04/18 19:53:03;;;;;;;4.07;2.15;;;;;;;17.04;56.71;96922.44;10359218;28;20064;-32
2023/04/18 19:58:04;;;;;;;5.03;2.97;;;;;;;17.03;56.67;96925.78;10360638;28;20037;-32
2023/04/18 20:03:04;;;;;;;5.07;2.20;;;;;;;17.02;56.14;96924.09;10342596;28;20515;-32
2023/04/18 20:08:05;;;;;;;3.80;2.30;;;;;;;17.00;55.96;96938.44;10359033;28;20033;-31
2023/04/18 20:13:06;;;;;;;2.77;2.23;;;;;;;17.00;55.96;96935.91;10344645;28;20424;-33
2023/04/18 20:18:07;;;;;;;3.58;2.10;;;;;;;16.99;55.93;96939.25;10330380;28;20042;-33
2023/04/18 20:23:07;;;;;;;2.67;2.10;;;;;;;16.99;55.68;96949.38;10358258;28;20588;-33
2023/04/18 20:28:09;;;;;;;5.30;2.00;;;;;;;16.99;55.37;96949.38;10363691;28;20030;-32
2023/04/18 20:33:10;;;;;;;3.42;2.00;;;;;;;16.98;54.66;96948.53;10339582;28;20695;-32
2023/04/18 20:38:11;;;;;;;5.22;1.58;;;;;;;16.98;53.89;96961.16;10353981;28;20041;-33
2023/04/18 20:43:16;;;;;;;5.97;2.30;;;;;;;16.99;58.66;96957.78;10354949;28;20037;-32
2023/04/18 20:48:17;;;;;;;6.75;2.58;;;;;;;17.04;59.55;96965.44;10352822;28;20038;-32
2023/04/18 20:53:25;;;;;;;3.55;2.15;;;;;;;17.03;59.68;96958.69;10350584;28;20051;-31
2023/04/18 20:58:26;;;;;;;3.08;2.00;;;;;;;17.00;56.99;96961.19;10367833;28;20032;-32
2023/04/18 21:03:26;;;;;;;3.43;2.50;;;;;;;16.97;56.46;96958.59;10340822;28;20583;-32
2023/04/18 21:08:26;;;;;;;3.47;1.73;;;;;;;16.95;55.43;96963.69;10341534;28;20045;-32
2023/04/18 21:13:27;;;;;;;2.97;2.17;;;;;;;16.95;55.08;96962.81;10352299;28;20026;-32
2023/04/18 21:18:27;;;;;;;5.23;2.10;;;;;;;16.95;54.37;96955.22;10359415;28;20291;-32
2023/04/18 21:23:28;;;;;;;3.80;2.35;;;;;;;16.94;55.59;96974.63;10354970;28;20062;-33
2023/04/18 21:28:28;;;;;;;4.73;2.37;;;;;;;16.97;55.08;96968.72;10351808;28;20034;-32
2023/04/18 21:33:28;;;;;;;3.90;1.77;;;;;;;16.98;56.09;96978.88;10345819;28;20036;-32
2023/04/18 21:38:29;;;;;;;6.20;2.40;;;;;;;16.97;55.82;96984.75;10348425;28;20864;-32
2023/04/18 21:43:29;;;;;;;2.50;2.07;;;;;;;16.97;55.55;96987.28;10342306;28;20034;-32
2023/04/18 21:48:29;;;;;;;2.50;2.20;;;;;;;16.97;58.22;96982.22;10364229;28;20389;-31
2023/04/18 21:53:30;;;;;;;5.53;2.60;;;;;;;16.97;59.78;96981.38;10354244;28;20025;-32
2023/04/18 21:58:30;;;;;;;3.97;2.10;;;;;;;16.97;60.12;96982.22;10367243;28;20049;-32
2023/04/18 22:03:32;;;;;;;3.67;2.08;;;;;;;16.95;59.18;96988.09;10355475;28;20042;-32
2023/04/18 22:08:33;;;;;;;2.97;2.05;;;;;;;16.94;57.35;96986.41;10355463;28;20037;-33
2023/04/18 22:13:33;;;;;;;4.07;2.80;;;;;;;16.94;57.33;96989.81;10357708;28;20048;-33
2023/04/18 22:18:33;;;;;;;3.77;2.23;;;;;;;16.95;56.54;96988.09;10358554;28;20463;-31
2023/04/18 22:23:34;;;;;;;3.57;2.93;;;;;;;16.93;56.53;96989.78;10358298;28;20030;-32
2023/04/18 22:28:35;;;;;;;2.47;2.20;;;;;;;16.91;56.92;96983.88;10365031;28;20049;-32
2023/04/18 22:33:35;;;;;;;6.15;2.53;;;;;;;16.90;57.18;96984.69;10349615;28;20052;-33
2023/04/18 22:38:35;;;;;;;3.80;1.67;;;;;;;16.89;57.02;96978.78;10361282;28;20045;-31
2023/04/18 22:43:36;;;;;;;3.10;2.67;;;;;;;16.89;56.64;96986.38;10356901;28;20375;-32
2023/04/18 22:48:37;;;;;;;7.53;2.63;;;;;;;16.88;56.86;96992.25;10359882;28;20038;-31
2023/04/18 22:53:37;;;;;;;4.25;1.88;;;;;;;16.84;56.80;96979.56;10353026;28;20092;-32
2023/04/18 22:58:37;;;;;;;4.50;2.50;;;;;;;16.91;59.78;96992.28;10359012;28;20043;-33
2023/04/18 23:03:38;;;;;;;4.17;2.10;;;;;;;16.94;59.67;96992.34;10373448;28;20128;-32
2023/04/18 23:08:38;;;;;;;5.60;2.87;;;;;;;16.90;58.50;96988.06;10363526;28;20791;-32
2023/04/18 23:13:39;;;;;;;3.57;1.87;;;;;;;16.89;57.39;96983.00;10373923;28;20048;-33
2023/04/18 23:18:39;;;;;;;6.07;2.67;;;;;;;16.87;57.40;96985.50;10364984;28;20038;-31